Time;durP1;ratioP1;P1;durP2;ratioP2;P2;SDS_P1;SDS_P2;PMS_P1;PMS_P2;Temp;Humidity;BMP_temperature;BMP_pressure;BME280_temperature;BME280_humidity;BME280_pressure;Samples;Min_cycle;Max_cycle;Signal;HPM_P1;HPM_P2
2022/03/18 00:00:16;;;;;;;9.98;6.15;;;;;;;;;;5077345;28;20028;-79
2022/03/18 00:02:41;;;;;;;8.32;5.65;;;;;;;;;;5095676;28;20028;-79
2022/03/18 00:05:07;;;;;;;8.98;4.75;;;;;;;;;;5076766;28;20036;-79
2022/03/18 00:07:33;;;;;;;9.43;4.90;;;;;;;;;;5076698;28;20115;-79
2022/03/18 00:09:58;;;;;;;9.93;5.00;;;;;;;;;;5076687;28;20048;-79
2022/03/18 00:12:23;;;;;;;11.52;5.80;;;;;;;;;;5094837;28;20027;-79
2022/03/18 00:14:49;;;;;;;9.48;5.47;;;;;;;;;;5076698;28;20040;-78
2022/03/18 00:17:14;;;;;;;8.73;5.10;;;;;;;;;;5095067;28;20024;-78
2022/03/18 00:19:40;;;;;;;7.63;5.05;;;;;;;;;;5094890;28;20032;-78
2022/03/18 00:22:06;;;;;;;10.23;5.35;;;;;;;;;;5095166;28;20077;-79
2022/03/18 00:24:32;;;;;;;9.95;5.30;;;;;;;;;;5076643;28;20081;-79
2022/03/18 00:27:03;;;;;;;8.93;5.40;;;;;;;;;;5077084;28;20023;-79
2022/03/18 00:29:29;;;;;;;10.32;5.18;;;;;;;;;;5076490;28;20024;-79
2022/03/18 00:31:54;;;;;;;9.60;5.15;;;;;;;;;;5076371;28;20490;-78
2022/03/18 00:34:20;;;;;;;12.15;5.60;;;;;;;;;;5076325;28;20036;-79
2022/03/18 00:36:46;;;;;;;7.40;4.97;;;;;;;;;;5094396;28;20103;-79
2022/03/18 00:39:11;;;;;;;8.50;4.90;;;;;;;;;;5076171;28;20030;-79
2022/03/18 00:41:37;;;;;;;9.80;4.70;;;;;;;;;;5076056;28;20040;-79
2022/03/18 00:44:03;;;;;;;8.23;4.68;;;;;;;;;;5094112;28;20039;-79
2022/03/18 00:46:28;;;;;;;6.72;4.55;;;;;;;;;;5076106;28;20089;-79
2022/03/18 00:54:22;;;;;;;7.72;4.13;;;;;;;;;;5094167;28;20039;-79
2022/03/18 00:56:48;;;;;;;6.63;4.35;;;;;;;;;;5059185;28;20020;-79
2022/03/18 00:59:13;;;;;;;5.78;4.00;;;;;;;;;;5075718;28;20034;-79
2022/03/18 01:01:39;;;;;;;7.18;4.50;;;;;;;;;;5075824;28;20478;-78
2022/03/18 01:04:04;;;;;;;8.32;4.82;;;;;;;;;;5058981;28;20046;-79
2022/03/18 01:06:31;;;;;;;6.78;4.60;;;;;;;;;;5074967;28;20089;-80
2022/03/18 01:08:56;;;;;;;6.88;4.65;;;;;;;;;;5059073;28;20052;-79
2022/03/18 01:11:21;;;;;;;8.18;4.25;;;;;;;;;;5093753;28;20039;-78
2022/03/18 01:13:47;;;;;;;9.10;4.45;;;;;;;;;;5094133;28;20034;-78
2022/03/18 01:16:13;;;;;;;11.20;4.60;;;;;;;;;;5094851;28;20028;-79
2022/03/18 01:18:39;;;;;;;7.22;4.63;;;;;;;;;;5094063;28;20032;-79
2022/03/18 01:21:05;;;;;;;6.90;4.68;;;;;;;;;;5094215;28;20024;-78
2022/03/18 01:23:30;;;;;;;8.95;5.05;;;;;;;;;;5075881;28;20428;-78
2022/03/18 01:25:55;;;;;;;8.80;4.70;;;;;;;;;;5094182;28;20032;-79
2022/03/18 01:28:22;;;;;;;6.57;4.53;;;;;;;;;;5075727;28;20024;-78
2022/03/18 01:30:47;;;;;;;8.68;4.47;;;;;;;;;;5075576;28;20035;-78
2022/03/18 01:33:13;;;;;;;7.90;4.40;;;;;;;;;;5075474;28;20044;-78
2022/03/18 01:35:38;;;;;;;9.10;4.63;;;;;;;;;;5093658;28;20466;-79
2022/03/18 01:38:03;;;;;;;8.43;4.40;;;;;;;;;;5093291;28;20081;-78
2022/03/18 01:40:29;;;;;;;6.07;4.30;;;;;;;;;;5093437;28;20036;-79
2022/03/18 01:42:55;;;;;;;6.75;4.30;;;;;;;;;;5093484;28;20475;-79
2022/03/18 01:45:20;;;;;;;7.30;4.53;;;;;;;;;;5093677;28;20028;-79
2022/03/18 01:47:47;;;;;;;6.03;4.07;;;;;;;;;;5075361;28;20028;-79
2022/03/18 01:50:14;;;;;;;8.52;4.53;;;;;;;;;;5075250;28;20044;-80
2022/03/18 01:52:39;;;;;;;6.22;3.92;;;;;;;;;;5075242;28;20063;-80
2022/03/18 01:55:05;;;;;;;7.57;4.40;;;;;;;;;;5093174;28;20064;-78
2022/03/18 01:57:31;;;;;;;7.40;4.00;;;;;;;;;;5075333;28;20024;-79
2022/03/18 01:59:57;;;;;;;6.90;4.38;;;;;;;;;;5093284;28;20077;-79
2022/03/18 02:02:23;;;;;;;7.60;3.72;;;;;;;;;;5074762;28;20028;-79
2022/03/18 02:04:48;;;;;;;6.53;4.18;;;;;;;;;;5075138;28;20039;-79
2022/03/18 02:07:15;;;;;;;7.15;3.83;;;;;;;;;;5074726;28;20028;-79
2022/03/18 02:09:40;;;;;;;8.52;4.55;;;;;;;;;;5093140;28;20081;-79
2022/03/18 02:12:07;;;;;;;9.85;3.92;;;;;;;;;;5074758;28;20024;-78
2022/03/18 02:14:36;;;;;;;5.28;3.55;;;;;;;;;;5074856;28;20101;-79
2022/03/18 02:17:03;;;;;;;6.85;3.55;;;;;;;;;;5076867;28;20028;-79
2022/03/18 02:19:29;;;;;;;5.50;3.80;;;;;;;;;;5079244;28;20471;-79
2022/03/18 02:21:56;;;;;;;7.47;4.03;;;;;;;;;;5079243;28;20042;-79
2022/03/18 02:24:21;;;;;;;10.00;3.90;;;;;;;;;;5062144;28;20028;-79
2022/03/18 02:26:49;;;;;;;5.50;3.67;;;;;;;;;;5079463;28;20099;-80
2022/03/18 02:29:15;;;;;;;6.95;4.10;;;;;;;;;;5079307;28;20020;-79
2022/03/18 02:31:40;;;;;;;5.72;3.50;;;;;;;;;;5097266;28;20539;-78
2022/03/18 02:34:06;;;;;;;6.85;4.05;;;;;;;;;;5078617;28;20032;-79
2022/03/18 02:36:34;;;;;;;5.50;3.42;;;;;;;;;;5061817;28;20043;-79
2022/03/18 02:38:59;;;;;;;7.00;3.42;;;;;;;;;;5096664;28;20381;-79
2022/03/18 02:41:25;;;;;;;6.85;3.58;;;;;;;;;;5078307;28;20111;-79
2022/03/18 02:43:50;;;;;;;4.53;3.25;;;;;;;;;;5078667;28;20034;-80
2022/03/18 02:46:16;;;;;;;7.60;3.22;;;;;;;;;;5096401;28;20489;-80
2022/03/18 02:48:41;;;;;;;6.60;3.40;;;;;;;;;;5078737;28;20074;-79
2022/03/18 02:51:07;;;;;;;5.00;3.10;;;;;;;;;;5061365;28;20386;-79
2022/03/18 02:53:33;;;;;;;4.55;3.15;;;;;;;;;;5078330;28;20475;-79
2022/03/18 02:55:58;;;;;;;6.22;3.03;;;;;;;;;;5078089;28;20036;-79
2022/03/18 02:58:24;;;;;;;5.10;3.10;;;;;;;;;;5096270;28;20037;-80
2022/03/18 03:00:50;;;;;;;4.68;2.95;;;;;;;;;;5096469;28;20057;-79
2022/03/18 03:03:15;;;;;;;4.60;2.90;;;;;;;;;;5096365;28;20024;-79
2022/03/18 03:08:25;;;;;;;5.82;2.90;;;;;;;;;;5096141;28;20026;-79
2022/03/18 03:10:51;;;;;;;5.22;2.80;;;;;;;;;;5096555;28;20107;-80
2022/03/18 03:13:16;;;;;;;4.85;2.72;;;;;;;;;;5077806;28;20081;-80
2022/03/18 03:15:41;;;;;;;7.18;2.97;;;;;;;;;;5078109;28;20085;-80
2022/03/18 03:18:07;;;;;;;4.80;2.72;;;;;;;;;;5096191;28;20122;-80
2022/03/18 03:20:32;;;;;;;3.95;2.55;;;;;;;;;;5077741;28;20032;-79
2022/03/18 03:22:58;;;;;;;6.22;2.80;;;;;;;;;;5077718;28;20509;-79
2022/03/18 03:25:24;;;;;;;4.65;2.47;;;;;;;;;;5077555;28;20035;-80
2022/03/18 03:27:53;;;;;;;2.85;2.30;;;;;;;;;;5076767;28;20036;-79
2022/03/18 03:30:19;;;;;;;3.50;2.60;;;;;;;;;;5077927;28;20099;-79
2022/03/18 03:32:45;;;;;;;3.50;2.60;;;;;;;;;;5077988;28;20104;-79
2022/03/18 03:35:10;;;;;;;3.05;2.20;;;;;;;;;;5077815;28;20028;-79
2022/03/18 03:37:36;;;;;;;5.20;2.72;;;;;;;;;;5095612;28;20089;-79
2022/03/18 03:40:02;;;;;;;4.50;2.72;;;;;;;;;;5077197;28;20548;-78
2022/03/18 03:42:28;;;;;;;3.63;2.75;;;;;;;;;;5077420;28;20034;-79
2022/03/18 03:44:53;;;;;;;3.80;2.67;;;;;;;;;;5077341;28;20106;-79
2022/03/18 03:47:19;;;;;;;5.95;2.50;;;;;;;;;;5077476;28;20101;-79
2022/03/18 03:49:44;;;;;;;5.50;2.55;;;;;;;;;;5094695;28;20056;-79
2022/03/18 03:52:10;;;;;;;6.28;2.47;;;;;;;;;;5095611;28;20122;-79
2022/03/18 03:54:37;;;;;;;3.33;2.45;;;;;;;;;;5077330;28;20464;-79
2022/03/18 03:57:03;;;;;;;4.80;2.60;;;;;;;;;;5077172;28;20077;-79
2022/03/18 03:59:28;;;;;;;3.38;2.00;;;;;;;;;;5076888;28;20031;-79
2022/03/18 04:01:54;;;;;;;3.20;2.30;;;;;;;;;;5077007;28;20111;-79
2022/03/18 04:04:19;;;;;;;4.10;2.60;;;;;;;;;;5095126;28;20032;-79
2022/03/18 04:06:44;;;;;;;3.35;2.25;;;;;;;;;;5094931;28;20173;-79
2022/03/18 04:09:10;;;;;;;3.60;2.58;;;;;;;;;;5077051;28;20017;-79
2022/03/18 04:11:35;;;;;;;3.30;2.10;;;;;;;;;;5095209;28;20160;-79
2022/03/18 04:14:01;;;;;;;4.70;2.40;;;;;;;;;;5095105;28;20038;-79
2022/03/18 04:16:26;;;;;;;3.42;2.30;;;;;;;;;;5095247;28;20024;-79
2022/03/18 04:18:51;;;;;;;3.85;2.10;;;;;;;;;;5077133;28;20050;-78
2022/03/18 04:21:17;;;;;;;6.15;2.00;;;;;;;;;;5095290;28;20028;-79
2022/03/18 04:23:42;;;;;;;4.07;2.22;;;;;;;;;;5076819;28;20474;-79
2022/03/18 04:26:07;;;;;;;5.25;2.30;;;;;;;;;;5077002;28;20078;-79
2022/03/18 04:28:33;;;;;;;4.35;2.40;;;;;;;;;;5095724;28;20028;-80
2022/03/18 04:30:58;;;;;;;2.95;2.17;;;;;;;;;;5095091;28;20055;-80
2022/03/18 04:33:24;;;;;;;2.17;1.80;;;;;;;;;;5095764;28;20474;-80
2022/03/18 04:35:51;;;;;;;2.97;1.83;;;;;;;;;;5076345;28;20073;-80
2022/03/18 04:38:16;;;;;;;2.80;1.80;;;;;;;;;;5095303;28;20391;-80
2022/03/18 04:40:42;;;;;;;4.28;2.30;;;;;;;;;;5094413;28;20039;-80
2022/03/18 04:43:07;;;;;;;5.57;2.08;;;;;;;;;;5076299;28;20119;-79
2022/03/18 04:45:33;;;;;;;3.05;2.10;;;;;;;;;;5094215;28;20035;-79
2022/03/18 04:47:58;;;;;;;3.17;1.70;;;;;;;;;;5094670;28;20099;-78
2022/03/18 04:50:24;;;;;;;5.50;2.20;;;;;;;;;;5093990;28;20042;-78
2022/03/18 04:52:49;;;;;;;2.88;2.17;;;;;;;;;;5059316;28;20032;-80
2022/03/18 04:55:14;;;;;;;3.80;2.10;;;;;;;;;;5076229;28;20073;-79
2022/03/18 04:57:40;;;;;;;2.78;1.75;;;;;;;;;;5094545;28;20036;-79
2022/03/18 05:00:06;;;;;;;3.63;2.17;;;;;;;;;;5095945;28;20028;-78
2022/03/18 05:02:32;;;;;;;3.15;1.90;;;;;;;;;;5075820;28;20111;-79
2022/03/18 05:04:57;;;;;;;3.40;2.03;;;;;;;;;;5094774;28;20051;-79
2022/03/18 05:07:24;;;;;;;2.65;1.85;;;;;;;;;;5077485;28;20024;-78
2022/03/18 05:09:49;;;;;;;3.03;1.80;;;;;;;;;;5076017;28;20035;-79
2022/03/18 05:12:15;;;;;;;4.60;1.85;;;;;;;;;;5094500;28;20377;-79
2022/03/18 05:14:41;;;;;;;9.77;1.98;;;;;;;;;;5075626;28;20036;-78
2022/03/18 05:17:08;;;;;;;4.47;2.28;;;;;;;;;;5075576;28;20427;-81
2022/03/18 05:19:34;;;;;;;4.90;2.22;;;;;;;;;;5094041;28;20028;-79
2022/03/18 05:21:59;;;;;;;4.78;2.38;;;;;;;;;;5075411;28;20042;-79
2022/03/18 05:24:26;;;;;;;7.18;2.63;;;;;;;;;;5058624;28;20035;-79
2022/03/18 05:26:52;;;;;;;3.10;1.85;;;;;;;;;;5076172;28;20016;-78
2022/03/18 05:29:18;;;;;;;5.18;1.90;;;;;;;;;;5093430;28;20044;-79
2022/03/18 05:31:43;;;;;;;4.20;2.33;;;;;;;;;;5075460;28;20495;-78
2022/03/18 05:34:09;;;;;;;3.97;2.05;;;;;;;;;;5076248;28;20119;-79
2022/03/18 05:36:34;;;;;;;4.68;2.05;;;;;;;;;;5093883;28;20024;-80
2022/03/18 05:38:59;;;;;;;4.57;2.20;;;;;;;;;;5093835;28;20425;-82
2022/03/18 05:41:25;;;;;;;10.00;2.60;;;;;;;;;;5093820;28;20024;-79
2022/03/18 05:43:51;;;;;;;5.47;1.90;;;;;;;;;;5076115;28;20024;-80
2022/03/18 05:46:16;;;;;;;3.83;2.10;;;;;;;;;;5075779;28;20043;-79
2022/03/18 05:48:42;;;;;;;4.95;2.25;;;;;;;;;;5076056;28;20479;-80
2022/03/18 05:51:08;;;;;;;6.15;2.42;;;;;;;;;;5092861;28;20230;-80
2022/03/18 05:53:33;;;;;;;3.33;2.05;;;;;;;;;;5093719;28;20497;-79
2022/03/18 05:58:43;;;;;;;8.05;2.05;;;;;;;;;;5078635;28;20120;-79
2022/03/18 06:01:10;;;;;;;4.18;1.90;;;;;;;;;;5094446;28;20056;-80
2022/03/18 06:03:36;;;;;;;4.43;1.83;;;;;;;;;;5078117;28;20020;-79
2022/03/18 06:06:03;;;;;;;5.78;1.98;;;;;;;;;;5077462;28;20032;-79
2022/03/18 06:13:56;;;;;;;3.90;2.13;;;;;;;;;;5093832;28;20047;-79
2022/03/18 06:16:22;;;;;;;5.53;2.50;;;;;;;;;;5094287;28;20024;-78
2022/03/18 06:18:47;;;;;;;6.15;2.67;;;;;;;;;;5076122;28;20028;-79
2022/03/18 06:21:15;;;;;;;3.40;2.10;;;;;;;;;;5077795;28;20486;-77
2022/03/18 06:23:40;;;;;;;9.73;2.50;;;;;;;;;;5059001;28;20493;-78
2022/03/18 06:26:05;;;;;;;5.00;1.90;;;;;;;;;;5093668;28;20036;-78
2022/03/18 06:28:31;;;;;;;6.30;2.08;;;;;;;;;;5076013;28;20052;-78
2022/03/18 06:30:56;;;;;;;2.63;1.73;;;;;;;;;;5075785;28;20478;-78
2022/03/18 06:33:22;;;;;;;4.85;2.10;;;;;;;;;;5093784;28;20490;-78
2022/03/18 06:35:47;;;;;;;4.65;1.85;;;;;;;;;;5093303;28;20067;-77
2022/03/18 06:38:12;;;;;;;5.40;1.92;;;;;;;;;;5075623;28;20036;-78
2022/03/18 06:40:38;;;;;;;3.75;1.75;;;;;;;;;;5076454;28;20051;-77
2022/03/18 06:43:03;;;;;;;5.35;1.73;;;;;;;;;;5094068;28;20467;-77
2022/03/18 06:45:29;;;;;;;3.30;2.20;;;;;;;;;;5060544;28;20089;-77
2022/03/18 06:47:54;;;;;;;2.67;1.70;;;;;;;;;;5094494;28;20047;-77
2022/03/18 06:50:22;;;;;;;8.02;1.98;;;;;;;;;;5059943;28;20444;-77
2022/03/18 06:52:47;;;;;;;6.45;2.30;;;;;;;;;;5093673;28;20414;-77
2022/03/18 06:55:13;;;;;;;6.22;2.28;;;;;;;;;;5076030;28;20024;-75
2022/03/18 06:57:38;;;;;;;6.78;2.35;;;;;;;;;;5093931;28;20036;-78
2022/03/18 07:00:04;;;;;;;9.40;3.15;;;;;;;;;;5059316;28;20449;-78
2022/03/18 07:02:30;;;;;;;11.32;2.85;;;;;;;;;;5094580;28;20045;-80
2022/03/18 07:04:55;;;;;;;12.38;3.75;;;;;;;;;;5097126;28;20024;-81
2022/03/18 07:07:21;;;;;;;13.77;3.58;;;;;;;;;;5098520;28;20035;-82
2022/03/18 07:09:46;;;;;;;11.00;3.65;;;;;;;;;;5096956;28;20027;-81
2022/03/18 07:12:12;;;;;;;11.75;3.40;;;;;;;;;;5079896;28;20111;-82
2022/03/18 07:14:37;;;;;;;11.52;3.80;;;;;;;;;;5079096;28;20043;-81
2022/03/18 07:19:49;;;;;;;10.40;3.28;;;;;;;;;;5041375;28;20114;-83
2022/03/18 07:22:14;;;;;;;12.10;3.15;;;;;;;;;;5098470;28;20024;-83
2022/03/18 07:24:40;;;;;;;9.00;3.47;;;;;;;;;;5079836;28;20039;-82
2022/03/18 07:27:05;;;;;;;14.70;3.25;;;;;;;;;;5097312;28;20024;-80
2022/03/18 07:29:30;;;;;;;21.20;2.95;;;;;;;;;;5098043;28;20028;-83
2022/03/18 07:31:57;;;;;;;13.30;4.00;;;;;;;;;;5078882;28;20031;-83
2022/03/18 07:34:22;;;;;;;5.95;3.30;;;;;;;;;;5097839;28;20020;-83
2022/03/18 07:36:48;;;;;;;7.00;2.92;;;;;;;;;;5097005;28;20031;-81
2022/03/18 07:39:14;;;;;;;10.70;3.40;;;;;;;;;;5096380;28;20043;-82
2022/03/18 07:41:39;;;;;;;11.98;2.95;;;;;;;;;;5096705;28;20032;-82
2022/03/18 07:44:05;;;;;;;10.93;3.63;;;;;;;;;;5079250;28;20028;-81
2022/03/18 07:46:30;;;;;;;8.10;2.97;;;;;;;;;;5096629;28;20032;-80
2022/03/18 07:48:56;;;;;;;6.38;2.97;;;;;;;;;;5097132;28;20024;-81
2022/03/18 07:51:21;;;;;;;6.90;3.75;;;;;;;;;;5096259;28;20402;-79
2022/03/18 07:53:47;;;;;;;5.70;2.88;;;;;;;;;;5077990;28;20036;-78
2022/03/18 07:56:12;;;;;;;8.80;2.88;;;;;;;;;;5096009;28;20024;-79
2022/03/18 07:58:37;;;;;;;7.45;3.22;;;;;;;;;;5077944;28;20031;-79
2022/03/18 08:01:05;;;;;;;6.75;3.17;;;;;;;;;;5078012;28;20411;-79
2022/03/18 08:03:30;;;;;;;11.95;3.60;;;;;;;;;;5095647;28;20028;-83
2022/03/18 08:05:56;;;;;;;6.30;3.42;;;;;;;;;;5061147;28;20437;-83
2022/03/18 08:08:21;;;;;;;9.75;4.25;;;;;;;;;;5095969;28;20035;-81
2022/03/18 08:10:47;;;;;;;7.30;4.20;;;;;;;;;;5096266;28;20032;-84
2022/03/18 08:13:12;;;;;;;14.18;3.90;;;;;;;;;;5082176;28;20035;-83
2022/03/18 08:15:38;;;;;;;6.22;3.58;;;;;;;;;;5099504;28;20027;-83
2022/03/18 08:18:03;;;;;;;11.15;4.40;;;;;;;;;;5081482;28;20072;-86
2022/03/18 08:20:29;;;;;;;12.75;3.00;;;;;;;;;;5095823;28;20043;-84
2022/03/18 08:22:54;;;;;;;7.82;3.58;;;;;;;;;;5077739;28;20486;-85
2022/03/18 08:25:20;;;;;;;11.82;4.05;;;;;;;;;;5061347;28;20100;-85
2022/03/18 08:27:49;;;;;;;8.10;3.55;;;;;;;;;;5095911;28;20044;-82
2022/03/18 08:30:15;;;;;;;10.48;3.92;;;;;;;;;;5060419;28;20036;-84
2022/03/18 08:32:40;;;;;;;8.45;4.07;;;;;;;;;;5077043;28;20028;-83
2022/03/18 08:35:07;;;;;;;14.40;4.68;;;;;;;;;;5095268;28;20039;-83
2022/03/18 08:40:17;;;;;;;14.77;3.55;;;;;;;;;;5095188;28;20437;-84
2022/03/18 08:42:42;;;;;;;11.82;4.18;;;;;;;;;;5076824;28;20032;-82
2022/03/18 08:45:09;;;;;;;5.82;3.03;;;;;;;;;;5077288;28;20036;-82
2022/03/18 08:47:34;;;;;;;13.00;3.28;;;;;;;;;;5095514;28;20027;-83
2022/03/18 08:49:59;;;;;;;8.50;2.92;;;;;;;;;;5059994;28;20115;-83
2022/03/18 08:52:25;;;;;;;6.47;2.97;;;;;;;;;;5094908;28;20036;-82
2022/03/18 08:54:50;;;;;;;8.80;3.17;;;;;;;;;;5076868;28;20031;-82
2022/03/18 08:57:16;;;;;;;6.38;2.97;;;;;;;;;;5076536;28;20044;-83
2022/03/18 08:59:42;;;;;;;5.68;2.58;;;;;;;;;;5094502;28;20074;-80
2022/03/18 09:02:08;;;;;;;8.63;2.85;;;;;;;;;;5077015;28;20031;-83
2022/03/18 09:04:33;;;;;;;7.45;2.83;;;;;;;;;;5076371;28;20054;-82
2022/03/18 09:06:59;;;;;;;6.15;3.15;;;;;;;;;;5076789;28;20117;-81
2022/03/18 09:09:24;;;;;;;6.68;2.63;;;;;;;;;;5094693;28;20024;-82
2022/03/18 09:11:49;;;;;;;6.50;2.75;;;;;;;;;;5076354;28;20387;-82
2022/03/18 09:14:15;;;;;;;5.55;2.90;;;;;;;;;;5094836;28;20336;-82
2022/03/18 09:16:40;;;;;;;8.30;2.58;;;;;;;;;;5076047;28;20123;-82
2022/03/18 09:19:06;;;;;;;7.15;2.95;;;;;;;;;;5094737;28;20509;-82
2022/03/18 09:21:32;;;;;;;4.75;2.25;;;;;;;;;;5076126;28;20020;-82
2022/03/18 09:23:58;;;;;;;7.05;2.60;;;;;;;;;;5076097;28;20042;-82
2022/03/18 09:26:23;;;;;;;4.80;2.30;;;;;;;;;;5075665;28;20533;-82
2022/03/18 09:28:49;;;;;;;4.70;2.05;;;;;;;;;;5076096;28;20467;-82
2022/03/18 09:31:15;;;;;;;5.55;2.33;;;;;;;;;;5094349;28;20089;-82
2022/03/18 09:33:43;;;;;;;4.80;2.33;;;;;;;;;;5076178;28;20123;-82
2022/03/18 09:36:14;;;;;;;5.80;2.53;;;;;;;;;;5075888;28;20035;-83
2022/03/18 09:38:40;;;;;;;3.22;1.80;;;;;;;;;;5076828;28;20070;-79
2022/03/18 09:41:06;;;;;;;6.97;2.13;;;;;;;;;;5076633;28;20096;-80
2022/03/18 09:43:34;;;;;;;9.35;2.53;;;;;;;;;;5094361;28;20028;-80
2022/03/18 09:45:59;;;;;;;11.00;2.80;;;;;;;;;;5076395;28;20051;-79
2022/03/18 09:48:25;;;;;;;5.55;2.40;;;;;;;;;;5075864;28;20108;-81
2022/03/18 09:50:51;;;;;;;13.30;2.30;;;;;;;;;;5059159;28;20075;-80
2022/03/18 09:53:17;;;;;;;11.80;2.63;;;;;;;;;;5075577;28;20028;-78
2022/03/18 09:55:42;;;;;;;7.97;2.58;;;;;;;;;;5093734;28;20057;-79
2022/03/18 09:58:08;;;;;;;7.60;2.78;;;;;;;;;;5075641;28;20032;-79
2022/03/18 10:00:33;;;;;;;5.65;2.80;;;;;;;;;;5075638;28;20471;-79
2022/03/18 10:03:17;;;;;;;8.35;2.70;;;;;;;;;;5076284;28;20032;-79
2022/03/18 10:05:49;;;;;;;5.32;2.03;;;;;;;;;;5093631;28;20024;-80
2022/03/18 10:08:15;;;;;;;8.00;2.15;;;;;;;;;;5093873;28;20100;-83
2022/03/18 10:10:45;;;;;;;8.98;2.53;;;;;;;;;;5093495;28;20028;-81
2022/03/18 10:13:12;;;;;;;11.70;2.67;;;;;;;;;;5075886;28;20020;-78
2022/03/18 10:15:39;;;;;;;7.97;2.38;;;;;;;;;;5075754;28;20089;-80
2022/03/18 10:18:04;;;;;;;5.75;2.10;;;;;;;;;;5075722;28;20038;-80
2022/03/18 10:20:34;;;;;;;5.28;2.08;;;;;;;;;;5075411;28;20378;-78
2022/03/18 10:23:03;;;;;;;5.32;2.22;;;;;;;;;;5077111;28;20035;-80
2022/03/18 10:25:37;;;;;;;4.70;2.05;;;;;;;;;;5093883;28;20102;-80
2022/03/18 10:28:06;;;;;;;6.80;2.05;;;;;;;;;;5075866;28;20066;-80
2022/03/18 10:30:32;;;;;;;11.90;2.05;;;;;;;;;;5077734;28;20035;-78
2022/03/18 10:32:58;;;;;;;5.55;1.92;;;;;;;;;;5076466;28;20024;-79
2022/03/18 10:38:33;;;;;;;6.25;1.90;;;;;;;;;;5081430;28;20066;-80
2022/03/18 10:41:01;;;;;;;5.22;2.03;;;;;;;;;;5079980;28;20028;-78
2022/03/18 10:43:26;;;;;;;3.42;1.95;;;;;;;;;;5080204;28;20453;-77
2022/03/18 10:46:04;;;;;;;6.55;2.28;;;;;;;;;;5097654;28;20024;-80
2022/03/18 10:48:29;;;;;;;3.45;1.90;;;;;;;;;;5080389;28;20039;-77
2022/03/18 10:51:04;;;;;;;2.80;1.60;;;;;;;;;;5079834;28;20123;-80
2022/03/18 10:53:31;;;;;;;5.32;1.88;;;;;;;;;;5097701;28;20040;-77
2022/03/18 10:56:02;;;;;;;5.97;1.90;;;;;;;;;;5079787;28;20119;-78
2022/03/18 10:58:32;;;;;;;3.47;1.63;;;;;;;;;;5080082;28;20418;-78
2022/03/18 11:01:00;;;;;;;5.30;1.83;;;;;;;;;;5080051;28;20061;-80
2022/03/18 11:03:26;;;;;;;5.85;2.08;;;;;;;;;;5079698;28;20486;-80
2022/03/18 11:05:51;;;;;;;6.00;2.33;;;;;;;;;;5063221;28;20521;-80
2022/03/18 11:08:26;;;;;;;4.60;1.70;;;;;;;;;;5079384;28;20032;-80
2022/03/18 11:11:15;;;;;;;2.60;1.35;;;;;;;;;;5078887;28;20475;-80
2022/03/18 11:14:04;;;;;;;6.13;2.05;;;;;;;;;;5078547;28;20066;-81
2022/03/18 11:16:33;;;;;;;4.57;1.55;;;;;;;;;;5078317;28;20032;-81
2022/03/18 11:19:01;;;;;;;4.13;1.60;;;;;;;;;;5078897;28;20028;-81
2022/03/18 11:21:38;;;;;;;3.70;1.95;;;;;;;;;;5061970;28;20028;-81
2022/03/18 11:24:05;;;;;;;2.40;1.40;;;;;;;;;;5080023;28;20024;-81
2022/03/18 11:26:32;;;;;;;3.08;1.75;;;;;;;;;;5062267;28;20039;-80
2022/03/18 11:29:16;;;;;;;3.35;1.83;;;;;;;;;;5078421;28;20115;-80
2022/03/18 11:31:42;;;;;;;4.40;1.67;;;;;;;;;;5062104;28;20080;-80
2022/03/18 11:34:15;;;;;;;3.25;1.45;;;;;;;;;;5078300;28;20110;-80
2022/03/18 11:37:05;;;;;;;3.13;1.50;;;;;;;;;;5096613;28;20594;-80
2022/03/18 11:39:30;;;;;;;2.83;1.70;;;;;;;;;;5097365;28;20032;-80
2022/03/18 11:41:57;;;;;;;3.42;1.65;;;;;;;;;;5080188;28;20569;-80
2022/03/18 11:44:40;;;;;;;4.00;1.70;;;;;;;;;;5079563;28;20055;-80
2022/03/18 11:47:20;;;;;;;3.17;1.52;;;;;;;;;;5097452;28;20024;-80
2022/03/18 11:49:50;;;;;;;2.88;1.70;;;;;;;;;;5096376;28;20103;-80
2022/03/18 11:52:16;;;;;;;3.75;1.50;;;;;;;;;;5099468;28;20031;-80
2022/03/18 11:54:55;;;;;;;1.95;1.52;;;;;;;;;;5079636;28;20493;-81
2022/03/18 11:57:33;;;;;;;2.45;1.75;;;;;;;;;;5064370;28;20035;-80
2022/03/18 12:00:05;;;;;;;4.45;1.52;;;;;;;;;;5097138;28;20024;-80
2022/03/18 12:02:35;;;;;;;11.10;1.48;;;;;;;;;;5097302;28;20072;-80
2022/03/18 12:05:01;;;;;;;3.78;1.67;;;;;;;;;;5061659;28;20487;-80
2022/03/18 12:07:30;;;;;;;4.63;1.75;;;;;;;;;;5080019;28;20382;-80
2022/03/18 12:10:05;;;;;;;4.30;2.10;;;;;;;;;;5079727;28;20028;-80
2022/03/18 12:12:40;;;;;;;4.70;1.60;;;;;;;;;;5079521;28;20020;-80
2022/03/18 12:15:23;;;;;;;2.10;1.40;;;;;;;;;;5098033;28;20039;-80
2022/03/18 12:17:53;;;;;;;2.63;1.35;;;;;;;;;;5096764;28;20556;-80
2022/03/18 12:20:23;;;;;;;3.78;1.63;;;;;;;;;;5096754;28;20048;-80
2022/03/18 12:22:50;;;;;;;5.57;1.50;;;;;;;;;;5096789;28;20111;-80
2022/03/18 12:25:16;;;;;;;2.63;1.30;;;;;;;;;;5078584;28;20498;-79
2022/03/18 12:27:44;;;;;;;5.50;1.48;;;;;;;;;;5078507;28;20031;-80
2022/03/18 12:30:25;;;;;;;2.58;1.45;;;;;;;;;;5079433;28;20461;-80
2022/03/18 12:33:04;;;;;;;1.63;1.27;;;;;;;;;;5078279;28;20035;-80
2022/03/18 12:35:37;;;;;;;4.05;1.58;;;;;;;;;;5079264;28;20024;-80
2022/03/18 12:38:06;;;;;;;2.63;1.42;;;;;;;;;;5078284;28;20035;-80
2022/03/18 12:40:33;;;;;;;2.47;1.40;;;;;;;;;;5096623;28;20020;-80
2022/03/18 12:43:01;;;;;;;2.58;1.50;;;;;;;;;;5077816;28;20382;-80
2022/03/18 12:45:30;;;;;;;5.93;2.05;;;;;;;;;;5095660;28;20024;-80
2022/03/18 12:48:04;;;;;;;2.80;1.52;;;;;;;;;;5095670;28;20077;-80
2022/03/18 12:50:33;;;;;;;2.60;1.50;;;;;;;;;;5073587;28;20055;-81
2022/03/18 12:52:59;;;;;;;2.47;1.45;;;;;;;;;;5056573;28;20036;-80
2022/03/18 12:55:25;;;;;;;2.88;1.40;;;;;;;;;;5056739;28;20078;-80
2022/03/18 12:57:51;;;;;;;3.40;1.67;;;;;;;;;;5073832;28;20020;-81
2022/03/18 13:00:17;;;;;;;3.63;1.58;;;;;;;;;;5073182;28;20094;-80
2022/03/18 13:02:44;;;;;;;3.15;1.67;;;;;;;;;;5074257;28;20476;-78
2022/03/18 13:05:13;;;;;;;4.93;1.90;;;;;;;;;;5073192;28;20031;-81
2022/03/18 13:07:39;;;;;;;3.60;1.85;;;;;;;;;;5073309;28;20028;-79
2022/03/18 13:10:05;;;;;;;3.03;1.60;;;;;;;;;;5073429;28;20023;-79
2022/03/18 13:12:34;;;;;;;2.72;1.65;;;;;;;;;;5072963;28;20050;-81
2022/03/18 13:15:15;;;;;;;2.90;1.50;;;;;;;;;;5056362;28;20029;-81
2022/03/18 13:17:41;;;;;;;3.67;1.67;;;;;;;;;;5072879;28;20062;-80
2022/03/18 13:20:27;;;;;;;7.18;1.55;;;;;;;;;;5073033;28;20028;-83
2022/03/18 13:22:54;;;;;;;5.32;1.40;;;;;;;;;;5072797;28;20107;-80
2022/03/18 13:25:20;;;;;;;2.60;1.40;;;;;;;;;;5073039;28;20021;-78
2022/03/18 13:27:45;;;;;;;5.30;1.63;;;;;;;;;;5072883;28;20033;-81
2022/03/18 13:32:56;;;;;;;3.22;1.40;;;;;;;;;;5073003;28;20103;-81
2022/03/18 13:35:24;;;;;;;2.47;1.60;;;;;;;;;;5074379;28;20036;-79
2022/03/18 13:38:03;;;;;;;2.67;1.55;;;;;;;;;;5072433;28;20029;-79
2022/03/18 13:40:29;;;;;;;3.58;1.80;;;;;;;;;;5073800;28;20093;-81
2022/03/18 13:43:06;;;;;;;5.13;2.03;;;;;;;;;;5072967;28;20055;-80
2022/03/18 13:45:32;;;;;;;7.20;1.80;;;;;;;;;;5072695;28;20024;-81
2022/03/18 13:47:58;;;;;;;3.95;2.10;;;;;;;;;;5074028;28;20085;-82
2022/03/18 13:50:25;;;;;;;4.38;2.15;;;;;;;;;;5055464;28;20049;-83
2022/03/18 13:52:50;;;;;;;4.30;1.50;;;;;;;;;;5073540;28;20032;-82
2022/03/18 13:55:30;;;;;;;3.72;1.95;;;;;;;;;;5073665;28;20390;-83
2022/03/18 13:57:56;;;;;;;5.22;1.88;;;;;;;;;;5074138;28;20475;-80
2022/03/18 14:00:27;;;;;;;3.25;2.00;;;;;;;;;;5055405;28;20035;-81
2022/03/18 14:03:15;;;;;;;3.88;1.80;;;;;;;;;;5073480;28;20025;-81
2022/03/18 14:05:41;;;;;;;4.43;1.98;;;;;;;;;;5055757;28;20128;-80
2022/03/18 14:08:07;;;;;;;5.20;1.80;;;;;;;;;;5072500;28;20040;-81
2022/03/18 14:10:36;;;;;;;3.58;2.10;;;;;;;;;;5073273;28;20086;-81
2022/03/18 14:13:04;;;;;;;4.63;1.92;;;;;;;;;;5073124;28;20039;-81
2022/03/18 14:15:49;;;;;;;2.13;1.42;;;;;;;;;;5055446;28;20035;-81
2022/03/18 14:18:17;;;;;;;2.72;1.60;;;;;;;;;;5072413;28;20475;-81
2022/03/18 14:20:52;;;;;;;5.03;1.98;;;;;;;;;;5072248;28;20036;-81
2022/03/18 14:23:18;;;;;;;4.40;1.90;;;;;;;;;;5073202;28;20471;-81
2022/03/18 14:25:44;;;;;;;3.95;1.70;;;;;;;;;;5073227;28;20025;-80
2022/03/18 14:28:15;;;;;;;3.92;1.70;;;;;;;;;;5055575;28;20043;-81
2022/03/18 14:30:42;;;;;;;4.10;2.13;;;;;;;;;;5072237;28;20052;-81
2022/03/18 14:33:07;;;;;;;3.95;1.75;;;;;;;;;;5055645;28;20203;-80
2022/03/18 14:35:32;;;;;;;2.22;1.40;;;;;;;;;;5074749;28;20495;-83
2022/03/18 14:37:58;;;;;;;5.18;2.30;;;;;;;;;;5072279;28;20464;-81
2022/03/18 14:40:24;;;;;;;4.43;2.00;;;;;;;;;;5072507;28;20040;-82
2022/03/18 14:42:50;;;;;;;6.85;2.03;;;;;;;;;;5074217;28;20035;-81
2022/03/18 14:45:17;;;;;;;3.72;1.70;;;;;;;;;;5073469;28;20023;-83
2022/03/18 14:47:43;;;;;;;6.00;2.10;;;;;;;;;;5055561;28;20044;-83
2022/03/18 14:50:10;;;;;;;3.83;1.77;;;;;;;;;;5071806;28;20055;-83
2022/03/18 14:52:36;;;;;;;5.97;1.55;;;;;;;;;;5072440;28;20529;-83
2022/03/18 14:57:49;;;;;;;5.35;1.77;;;;;;;;;;5073039;28;20067;-82
2022/03/18 15:00:14;;;;;;;3.38;1.73;;;;;;;;;;5072698;28;20056;-82
2022/03/18 15:02:40;;;;;;;9.25;2.08;;;;;;;;;;5072458;28;20128;-82
2022/03/18 15:05:07;;;;;;;3.97;1.73;;;;;;;;;;5072263;28;20052;-81
2022/03/18 15:07:32;;;;;;;2.30;1.40;;;;;;;;;;5072103;28;20053;-81
2022/03/18 15:09:58;;;;;;;3.85;1.92;;;;;;;;;;5072183;28;20356;-82